Biaru Airport


Codes: AYBR/BRP
Name: Biaru Airport
City: Biaru
Country: Papua New Guinea
Elevation: 4900 ft.

Photos at Biaru Airport


   Photos courtesy of SpottingLog. You can add your own sightings and photos by signing up for a free trial today.



No photos found.

Weather at Biaru Airport


Time (UTC)DescriptionTempratureWindCloud coverageVisibilityPressureHumidity
21-Feb-2024 03:00Light Rain19°C4 mph, SW99%1166m1014hPa98%
21-Feb-2024 06:00Light Rain19°C4 mph, SW99%8396m1014hPa97%
21-Feb-2024 09:00Light Rain18°C2 mph, SW100%5646m1015hPa97%
21-Feb-2024 12:00Overcast Clouds17°C2 mph, SW100%5117m1017hPa96%
21-Feb-2024 15:00Overcast Clouds17°C2 mph, SW100%8000m1015hPa97%
21-Feb-2024 18:00Overcast Clouds17°C2 mph, SW100%4499m1015hPa96%
21-Feb-2024 21:00Light Rain17°C2 mph, SW100%1923m1017hPa97%
22-Feb-2024 00:00Light Rain18°C2 mph, SW100%4388m1017hPa94%
22-Feb-2024 03:00Light Rain19°C4 mph, SW100%6409m1015hPa91%
22-Feb-2024 06:00Light Rain18°C2 mph, SW100%5881m1014hPa95%
22-Feb-2024 09:00Light Rain17°C0 mph, SE100%10000m1016hPa96%
22-Feb-2024 12:00Light Rain17°C2 mph, SE100%10000m1017hPa94%
22-Feb-2024 15:00Light Rain17°C2 mph, SE100%10000m1015hPa92%
22-Feb-2024 18:00Light Rain17°C2 mph, SE100%10000m1014hPa88%
22-Feb-2024 21:00Light Rain17°C2 mph, SE100%10000m1016hPa88%
23-Feb-2024 00:00Overcast Clouds20°C4 mph, SW100%10000m1016hPa78%
23-Feb-2024 03:00Light Rain25°C7 mph, SW93%10000m1012hPa59%
23-Feb-2024 06:00Light Rain23°C7 mph, SW83%10000m1011hPa70%
23-Feb-2024 09:00Light Rain19°C2 mph, SW96%1747m1014hPa99%
23-Feb-2024 12:00Light Rain18°C2 mph, SE98%10000m1016hPa97%
23-Feb-2024 15:00Overcast Clouds18°C0 mph, SE100%10000m1014hPa96%
23-Feb-2024 18:00Overcast Clouds17°C0 mph, SE100%10000m1013hPa95%
23-Feb-2024 21:00Overcast Clouds17°C2 mph, SE100%10000m1014hPa93%
24-Feb-2024 00:00Overcast Clouds23°C4 mph, SW100%10000m1014hPa66%
24-Feb-2024 03:00Light Rain23°C7 mph, SW99%9771m1011hPa77%
24-Feb-2024 06:00Light Rain20°C4 mph, SW100%1473m1010hPa95%
24-Feb-2024 09:00Light Rain19°C2 mph, SW100%8169m1012hPa98%
24-Feb-2024 12:00Light Rain19°C2 mph, SW100%4483m1015hPa98%
24-Feb-2024 15:00Light Rain18°C2 mph, SW100%3807m1013hPa98%
24-Feb-2024 18:00Light Rain18°C2 mph, SW100%10000m1012hPa96%
24-Feb-2024 21:00Light Rain18°C0 mph, S100%10000m1014hPa97%
25-Feb-2024 00:00Light Rain19°C2 mph, SW100%10000m1014hPa94%
25-Feb-2024 03:00Light Rain20°C2 mph, SW100%10000m1012hPa92%
25-Feb-2024 06:00Light Rain19°C2 mph, SW100%10000m1011hPa96%
25-Feb-2024 09:00Light Rain18°C0 mph, E100%10000m1013hPa96%
25-Feb-2024 12:00Overcast Clouds17°C2 mph, E100%10000m1015hPa93%
25-Feb-2024 15:00Overcast Clouds17°C0 mph, S100%10000m1013hPa94%
25-Feb-2024 18:00Overcast Clouds17°C0 mph, S100%10000m1013hPa95%
25-Feb-2024 21:00Overcast Clouds17°C2 mph, SE96%10000m1014hPa94%
26-Feb-2024 00:00Overcast Clouds24°C4 mph, SW91%10000m1013hPa63%